Tampa, Florida
Traffic Map
Current Weather Conditions
Tampa, Florida
Overcast
Overcast
80°
Feels Like: 83°
Wind Chill: 80° Ceiling: 22000
Heat Index: 83° Visibility: 10mi
Dew Point: 70° Wind: 3mph
Humidity: 71% Direction: ° ()
Pressure: 29.94in Gusts: 0mph
Raw Report DataKTPA 190353Z VRB03KT 10SM FEW050 BKN220 OVC250 27/21 A2994 RMK AO2 SLP139 T02670211
Traffic Incident Summary
Active as of:
Severity:
Category:
InformationThere was an issue retrieving the traffic information for this location. Please try a different location or try again shortly.
Advertisements
Track Severe Weather on mobile